Time;durP1;ratioP1;P1;durP2;ratioP2;P2;SDS_P1;SDS_P2;PMS_P1;PMS_P2;Temp;Humidity;BMP_temperature;BMP_pressure;BME280_temperature;BME280_humidity;BME280_pressure;Samples;Min_cycle;Max_cycle;Signal;HPM_P1;HPM_P2
2022/04/15 00:01:32;;;;;;;;;;;21.40;99.90;;;;;;5053640;28;19924;-61
2022/04/15 00:03:59;;;;;;;;;;;21.40;99.90;;;;;;5055023;28;19947;-60
2022/04/15 00:06:26;;;;;;;;;;;21.40;99.90;;;;;;5052117;28;20294;-60
2022/04/15 00:08:54;;;;;;;;;;;21.40;99.90;;;;;;5050804;28;19940;-60
2022/04/15 00:11:21;;;;;;;;;;;21.40;99.90;;;;;;5061259;28;20499;-60
2022/04/15 00:13:48;;;;;;;;;;;21.40;99.90;;;;;;5051318;28;19924;-60
2022/04/15 00:16:15;;;;;;;;;;;21.40;99.90;;;;;;5068150;28;19935;-61
2022/04/15 00:18:43;;;;;;;;;;;21.40;99.90;;;;;;5059120;28;20513;-61
2022/04/15 00:21:10;;;;;;;;;;;21.40;99.90;;;;;;5059373;28;19931;-62
2022/04/15 00:23:38;;;;;;;;;;;21.40;99.90;;;;;;5059067;28;19928;-61
2022/04/15 00:26:05;;;;;;;;;;;21.40;99.90;;;;;;5054557;28;19939;-61
2022/04/15 00:28:33;;;;;;;;;;;21.40;99.90;;;;;;5049631;28;19928;-62
2022/04/15 00:31:00;;;;;;;;;;;21.30;99.90;;;;;;5056326;28;19920;-62
2022/04/15 00:33:28;;;;;;;;;;;21.30;99.90;;;;;;5053226;28;19932;-62
2022/04/15 00:35:55;;;;;;;;;;;21.30;99.90;;;;;;5061848;28;20562;-60
2022/04/15 00:38:22;;;;;;;;;;;21.30;99.90;;;;;;5068881;28;19948;-61
2022/04/15 00:40:49;;;;;;;;;;;21.30;99.90;;;;;;5051799;28;19924;-61
2022/04/15 00:43:16;;;;;;;;;;;21.30;99.90;;;;;;5053601;28;20035;-61
2022/04/15 00:45:46;;;;;;;;;;;21.30;99.90;;;;;;5062364;28;19939;-61
2022/04/15 00:48:14;;;;;;;;;;;21.30;99.90;;;;;;5061342;28;19924;-61
2022/04/15 00:50:41;;;;;;;;;;;21.30;99.90;;;;;;5059599;28;20408;-61
2022/04/15 00:53:09;;;;;;;;;;;21.30;99.90;;;;;;5061132;28;19928;-59
2022/04/15 00:55:37;;;;;;;;;;;21.30;99.90;;;;;;5063574;28;20835;-59
2022/04/15 00:58:05;;;;;;;;;;;21.30;99.90;;;;;;5055133;28;19947;-61
2022/04/15 01:00:33;;;;;;;;;;;21.30;99.90;;;;;;5049810;28;19924;-60
2022/04/15 01:03:02;;;;;;;;;;;21.30;99.90;;;;;;5067084;28;19920;-60
2022/04/15 01:05:30;;;;;;;;;;;21.30;99.90;;;;;;5059929;28;19932;-61
2022/04/15 01:07:57;;;;;;;;;;;21.30;99.90;;;;;;5030489;28;19925;-61
2022/04/15 01:10:25;;;;;;;;;;;21.30;99.90;;;;;;5054036;28;20468;-61
2022/04/15 01:12:54;;;;;;;;;;;21.30;99.90;;;;;;5053324;28;20495;-61
2022/04/15 01:15:41;;;;;;;;;;;21.30;99.90;;;;;;5051324;28;20400;-61
2022/04/15 01:18:08;;;;;;;;;;;21.30;99.90;;;;;;5054300;28;19932;-61
2022/04/15 01:20:36;;;;;;;;;;;21.30;99.90;;;;;;5056154;28;19924;-61
2022/04/15 01:23:07;;;;;;;;;;;21.30;99.90;;;;;;5052671;28;20457;-60
2022/04/15 01:25:35;;;;;;;;;;;21.30;99.90;;;;;;5052611;28;20379;-60
2022/04/15 01:28:02;;;;;;;;;;;21.30;99.90;;;;;;5052464;28;20028;-60
2022/04/15 01:30:29;;;;;;;;;;;21.30;99.90;;;;;;5047758;28;20385;-61
2022/04/15 01:32:57;;;;;;;;;;;21.20;99.90;;;;;;5057747;28;19924;-60
2022/04/15 01:35:25;;;;;;;;;;;21.30;99.90;;;;;;5047981;28;20313;-59
2022/04/15 01:37:52;;;;;;;;;;;21.20;99.90;;;;;;5059607;28;20428;-61
2022/04/15 01:40:19;;;;;;;;;;;21.20;99.90;;;;;;5033310;28;19925;-60
2022/04/15 01:42:46;;;;;;;;;;;21.20;99.90;;;;;;5060649;28;19924;-60
2022/04/15 01:45:14;;;;;;;;;;;21.20;99.90;;;;;;5051762;28;19931;-59
2022/04/15 01:47:42;;;;;;;;;;;21.20;99.90;;;;;;5064574;28;19936;-59
2022/04/15 01:50:09;;;;;;;;;;;21.20;99.90;;;;;;5048239;28;19929;-60
2022/04/15 01:52:36;;;;;;;;;;;21.20;99.90;;;;;;5049259;28;20377;-60
2022/04/15 01:55:03;;;;;;;;;;;21.20;99.90;;;;;;5033142;28;19921;-61
2022/04/15 01:57:31;;;;;;;;;;;21.20;99.90;;;;;;5048024;28;19925;-61
2022/04/15 01:59:58;;;;;;;;;;;21.20;99.90;;;;;;5054605;28;19924;-61
2022/04/15 02:02:25;;;;;;;;;;;21.20;99.90;;;;;;5057352;28;19925;-61
2022/04/15 02:04:53;;;;;;;;;;;21.20;99.90;;;;;;5059898;28;20350;-61
2022/04/15 02:07:20;;;;;;;;;;;21.20;99.90;;;;;;5053633;28;19920;-61
2022/04/15 02:09:48;;;;;;;;;;;21.20;99.90;;;;;;5048111;28;19920;-62
2022/04/15 02:12:15;;;;;;;;;;;21.20;99.90;;;;;;5051681;28;19921;-60
2022/04/15 02:14:42;;;;;;;;;;;21.20;99.90;;;;;;5050150;28;19921;-60
2022/04/15 02:17:09;;;;;;;;;;;21.20;99.90;;;;;;5046821;28;19952;-60
2022/04/15 02:19:36;;;;;;;;;;;21.20;99.90;;;;;;5049134;28;19932;-61
2022/04/15 02:22:03;;;;;;;;;;;21.20;99.90;;;;;;5055965;28;20405;-61
2022/04/15 02:24:30;;;;;;;;;;;21.20;99.90;;;;;;5055025;28;19951;-63
2022/04/15 02:26:57;;;;;;;;;;;21.20;99.90;;;;;;5061877;28;20317;-60
2022/04/15 02:29:24;;;;;;;;;;;21.20;99.90;;;;;;5059171;28;19931;-60
2022/04/15 02:31:52;;;;;;;;;;;21.20;99.90;;;;;;5052145;28;19925;-60
2022/04/15 02:34:19;;;;;;;;;;;21.20;99.90;;;;;;5055892;28;19936;-58
2022/04/15 02:36:46;;;;;;;;;;;21.20;99.90;;;;;;5063967;28;19924;-61
2022/04/15 02:39:13;;;;;;;;;;;21.20;99.90;;;;;;5061217;28;20255;-63
2022/04/15 02:41:41;;;;;;;;;;;21.20;99.90;;;;;;5054178;28;20416;-61
2022/04/15 02:44:08;;;;;;;;;;;21.20;99.90;;;;;;5053080;28;19943;-62
2022/04/15 02:46:36;;;;;;;;;;;21.20;99.90;;;;;;5051489;28;19932;-61
2022/04/15 02:49:03;;;;;;;;;;;21.10;99.90;;;;;;5046840;28;19931;-62
2022/04/15 02:51:30;;;;;;;;;;;21.10;99.90;;;;;;5063804;28;20210;-59
2022/04/15 02:53:58;;;;;;;;;;;21.10;99.90;;;;;;5047689;28;20386;-61
2022/04/15 02:56:25;;;;;;;;;;;21.10;99.90;;;;;;5060393;28;19924;-61
2022/04/15 02:58:52;;;;;;;;;;;21.10;99.90;;;;;;5061182;28;20281;-61
2022/04/15 03:01:19;;;;;;;;;;;21.10;99.90;;;;;;5057438;28;19935;-62
2022/04/15 03:03:46;;;;;;;;;;;21.10;99.90;;;;;;5058543;28;19924;-62
2022/04/15 03:06:13;;;;;;;;;;;21.10;99.90;;;;;;5059844;28;19924;-62
2022/04/15 03:08:41;;;;;;;;;;;21.10;99.90;;;;;;5046984;28;19932;-59
2022/04/15 03:11:08;;;;;;;;;;;21.10;99.90;;;;;;5054166;28;19931;-61
2022/04/15 03:13:35;;;;;;;;;;;21.10;99.90;;;;;;5051128;28;19932;-62
2022/04/15 03:16:03;;;;;;;;;;;21.10;99.90;;;;;;5056609;28;19943;-63
2022/04/15 03:18:31;;;;;;;;;;;21.10;99.90;;;;;;5064526;28;19935;-62
2022/04/15 03:20:58;;;;;;;;;;;21.00;99.90;;;;;;5060623;28;20309;-60
2022/04/15 03:23:25;;;;;;;;;;;21.00;99.90;;;;;;5052182;28;19936;-62
2022/04/15 03:25:52;;;;;;;;;;;21.00;99.90;;;;;;5054896;28;20011;-60
2022/04/15 03:28:20;;;;;;;;;;;21.00;99.90;;;;;;5063886;28;19928;-61
2022/04/15 03:30:47;;;;;;;;;;;21.00;99.90;;;;;;5056286;28;19924;-62
2022/04/15 03:33:14;;;;;;;;;;;21.00;99.90;;;;;;5068328;28;20032;-62
2022/04/15 03:35:41;;;;;;;;;;;21.00;99.90;;;;;;5068166;28;19924;-60
2022/04/15 03:38:08;;;;;;;;;;;21.00;99.90;;;;;;5055571;28;19932;-61
2022/04/15 03:40:35;;;;;;;;;;;21.00;99.90;;;;;;5066833;28;19944;-62
2022/04/15 03:43:04;;;;;;;;;;;21.00;99.90;;;;;;5054411;28;19928;-61
2022/04/15 03:45:32;;;;;;;;;;;21.00;99.90;;;;;;5055119;28;19921;-62
2022/04/15 03:47:59;;;;;;;;;;;21.00;99.90;;;;;;5060098;28;19928;-61
2022/04/15 03:50:26;;;;;;;;;;;21.00;99.90;;;;;;5062500;28;19920;-59
2022/04/15 03:52:54;;;;;;;;;;;21.00;99.90;;;;;;5055766;28;19932;-61
2022/04/15 03:55:22;;;;;;;;;;;21.00;99.90;;;;;;5054950;28;19929;-61
2022/04/15 03:57:50;;;;;;;;;;;21.00;99.90;;;;;;5049823;28;19951;-60
2022/04/15 04:00:18;;;;;;;;;;;21.00;99.90;;;;;;5056406;28;19924;-61
2022/04/15 04:02:49;;;;;;;;;;;21.00;99.90;;;;;;5051061;28;19924;-60
2022/04/15 04:05:17;;;;;;;;;;;21.00;99.90;;;;;;5049925;28;19925;-61
2022/04/15 04:07:44;;;;;;;;;;;21.00;99.90;;;;;;5049725;28;20119;-61
2022/04/15 04:10:12;;;;;;;;;;;21.00;99.90;;;;;;5051318;28;20373;-59
2022/04/15 04:12:40;;;;;;;;;;;21.00;99.90;;;;;;5064319;28;19924;-62
2022/04/15 04:15:07;;;;;;;;;;;21.00;99.90;;;;;;5061880;28;19932;-63
2022/04/15 04:17:35;;;;;;;;;;;21.00;99.90;;;;;;5062449;28;19932;-61
2022/04/15 04:20:03;;;;;;;;;;;21.00;99.90;;;;;;5053952;28;19932;-64
2022/04/15 04:22:31;;;;;;;;;;;21.00;99.90;;;;;;5043904;28;20416;-62
2022/04/15 04:24:58;;;;;;;;;;;21.00;99.90;;;;;;5059364;28;19931;-62
2022/04/15 04:27:26;;;;;;;;;;;21.00;99.90;;;;;;5056209;28;19925;-62
2022/04/15 04:29:53;;;;;;;;;;;21.00;99.90;;;;;;5049344;28;19928;-63
2022/04/15 04:32:20;;;;;;;;;;;21.00;99.90;;;;;;5053627;28;19928;-63
2022/04/15 04:34:47;;;;;;;;;;;21.00;99.90;;;;;;5064003;28;19920;-61
2022/04/15 04:37:14;;;;;;;;;;;21.00;99.90;;;;;;5056685;28;19925;-60
2022/04/15 04:39:42;;;;;;;;;;;21.00;99.90;;;;;;5053107;28;20369;-58
2022/04/15 04:42:09;;;;;;;;;;;21.00;99.90;;;;;;5051835;28;19931;-61
2022/04/15 04:44:37;;;;;;;;;;;21.00;99.90;;;;;;5052488;28;19920;-61
2022/04/15 04:47:08;;;;;;;;;;;21.00;99.90;;;;;;5055021;28;19924;-61
2022/04/15 04:49:36;;;;;;;;;;;21.00;99.90;;;;;;5047903;28;19931;-61
2022/04/15 04:52:03;;;;;;;;;;;21.00;99.90;;;;;;5053061;28;20259;-61
2022/04/15 04:54:31;;;;;;;;;;;21.10;99.90;;;;;;5054079;28;19928;-59
2022/04/15 04:56:58;;;;;;;;;;;21.00;99.90;;;;;;5048875;28;19924;-60
2022/04/15 04:59:28;;;;;;;;;;;21.00;99.90;;;;;;5052347;28;19935;-63
2022/04/15 05:01:55;;;;;;;;;;;20.90;99.90;;;;;;5049871;28;19931;-61
2022/04/15 05:04:22;;;;;;;;;;;21.00;99.90;;;;;;5061365;28;20408;-61
2022/04/15 05:06:49;;;;;;;;;;;21.00;99.90;;;;;;5067154;28;19931;-60
2022/04/15 05:09:16;;;;;;;;;;;21.00;99.90;;;;;;5051465;28;19931;-62
2022/04/15 05:11:44;;;;;;;;;;;21.00;99.90;;;;;;5056878;28;19928;-61
2022/04/15 05:14:11;;;;;;;;;;;21.00;99.90;;;;;;5048750;28;19935;-61
2022/04/15 05:16:38;;;;;;;;;;;21.00;99.90;;;;;;5064328;28;19924;-62
2022/04/15 05:19:05;;;;;;;;;;;21.00;99.90;;;;;;5048747;28;19931;-61
2022/04/15 05:21:32;;;;;;;;;;;20.90;99.90;;;;;;5048575;28;20401;-61
2022/04/15 05:23:59;;;;;;;;;;;21.00;99.90;;;;;;5056775;28;19925;-61
2022/04/15 05:26:29;;;;;;;;;;;21.00;99.90;;;;;;5057409;28;20309;-61
2022/04/15 05:28:56;;;;;;;;;;;21.00;99.90;;;;;;5049215;28;19924;-62
2022/04/15 05:31:23;;;;;;;;;;;21.00;99.90;;;;;;5062459;28;19920;-61
2022/04/15 05:33:50;;;;;;;;;;;21.00;99.90;;;;;;5048078;28;19925;-60
2022/04/15 05:36:18;;;;;;;;;;;21.00;99.90;;;;;;5036098;28;19985;-61
2022/04/15 05:38:45;;;;;;;;;;;21.00;99.90;;;;;;5048707;28;19921;-62
2022/04/15 05:41:12;;;;;;;;;;;21.00;99.90;;;;;;5059418;28;19924;-59
2022/04/15 05:43:39;;;;;;;;;;;21.00;99.90;;;;;;5047678;28;19925;-63
2022/04/15 05:46:07;;;;;;;;;;;21.00;99.90;;;;;;5060034;28;20309;-61
2022/04/15 05:48:34;;;;;;;;;;;21.00;99.90;;;;;;5048305;28;19932;-60
2022/04/15 05:51:01;;;;;;;;;;;21.00;99.90;;;;;;5060006;28;19928;-62
2022/04/15 05:53:28;;;;;;;;;;;21.00;99.90;;;;;;5049325;28;19931;-62
2022/04/15 05:55:56;;;;;;;;;;;21.00;99.90;;;;;;5050251;28;20364;-62
2022/04/15 05:58:27;;;;;;;;;;;21.00;99.90;;;;;;5054118;28;20305;-63
2022/04/15 06:00:54;;;;;;;;;;;20.80;99.90;;;;;;5066361;28;19924;-63
2022/04/15 06:03:22;;;;;;;;;;;20.50;99.90;;;;;;5054570;28;19955;-60
2022/04/15 06:05:50;;;;;;;;;;;20.30;99.90;;;;;;5057292;28;19944;-62
2022/04/15 06:08:17;;;;;;;;;;;20.30;99.90;;;;;;5034540;28;19932;-64
2022/04/15 06:10:44;;;;;;;;;;;20.50;99.90;;;;;;5049904;28;19925;-62
2022/04/15 06:13:19;;;;;;;;;;;20.60;99.90;;;;;;5050904;28;20304;-62
2022/04/15 06:16:20;;;;;;;;;;;20.60;99.90;;;;;;5058999;28;19924;-61
2022/04/15 06:18:40;;;;;;;;;;;20.60;99.90;;;;;;5050864;28;19925;-61
2022/04/15 06:21:07;;;;;;;;;;;20.70;99.90;;;;;;5054656;28;19925;-62
2022/04/15 06:23:34;;;;;;;;;;;20.70;99.90;;;;;;5055060;28;19924;-65
2022/04/15 06:26:01;;;;;;;;;;;20.70;99.90;;;;;;5056295;28;19929;-62
2022/04/15 06:28:28;;;;;;;;;;;20.70;99.90;;;;;;5042260;28;20315;-61
2022/04/15 06:30:57;;;;;;;;;;;20.70;99.90;;;;;;5061606;28;20065;-62
2022/04/15 06:33:24;;;;;;;;;;;20.70;99.90;;;;;;5048789;28;19929;-61
2022/04/15 06:35:52;;;;;;;;;;;20.80;99.90;;;;;;5053251;28;19929;-63
2022/04/15 06:38:19;;;;;;;;;;;20.80;99.90;;;;;;5050634;28;19931;-65
2022/04/15 06:40:46;;;;;;;;;;;20.70;99.90;;;;;;5056305;28;19932;-64
2022/04/15 06:43:14;;;;;;;;;;;20.80;99.90;;;;;;5058361;28;19931;-63
2022/04/15 06:45:41;;;;;;;;;;;20.80;99.90;;;;;;5060613;28;19932;-67
2022/04/15 06:48:09;;;;;;;;;;;20.80;99.90;;;;;;5040082;28;19921;-61
2022/04/15 06:50:36;;;;;;;;;;;20.80;99.90;;;;;;5052335;28;19927;-57
2022/04/15 06:53:03;;;;;;;;;;;20.90;99.90;;;;;;5050681;28;20416;-59
2022/04/15 06:55:31;;;;;;;;;;;20.80;99.90;;;;;;5052046;28;20412;-60
2022/04/15 06:57:58;;;;;;;;;;;20.90;99.90;;;;;;5060671;28;20277;-61
2022/04/15 07:00:25;;;;;;;;;;;20.90;99.90;;;;;;5052813;28;19924;-58
2022/04/15 07:02:52;;;;;;;;;;;20.90;99.90;;;;;;5062807;28;20009;-60
2022/04/15 07:05:20;;;;;;;;;;;20.90;99.90;;;;;;5059262;28;19931;-60
2022/04/15 07:07:47;;;;;;;;;;;21.00;99.90;;;;;;5062278;28;19935;-57
2022/04/15 07:10:14;;;;;;;;;;;21.00;99.90;;;;;;5048144;28;19925;-59
2022/04/15 07:12:41;;;;;;;;;;;21.00;99.90;;;;;;5059686;28;19944;-59
2022/04/15 07:15:09;;;;;;;;;;;21.10;99.90;;;;;;5055246;28;19931;-62
2022/04/15 07:17:36;;;;;;;;;;;21.00;99.90;;;;;;5058208;28;20428;-66
2022/04/15 07:20:04;;;;;;;;;;;21.10;99.90;;;;;;5052428;28;19928;-64
2022/04/15 07:22:31;;;;;;;;;;;21.20;99.90;;;;;;5048818;28;19936;-64
2022/04/15 07:24:58;;;;;;;;;;;21.30;99.90;;;;;;5054174;28;19925;-66
2022/04/15 07:27:25;;;;;;;;;;;21.40;99.90;;;;;;5045811;28;19924;-62
2022/04/15 07:29:53;;;;;;;;;;;21.40;99.90;;;;;;5051609;28;19925;-66
2022/04/15 07:32:21;;;;;;;;;;;21.50;99.90;;;;;;5056645;28;19928;-62
2022/04/15 07:34:49;;;;;;;;;;;21.60;99.90;;;;;;5057210;28;19924;-61
2022/04/15 07:37:17;;;;;;;;;;;21.60;99.90;;;;;;5062351;28;20306;-62
2022/04/15 07:39:44;;;;;;;;;;;21.70;99.90;;;;;;5060433;28;20007;-62
2022/04/15 07:42:12;;;;;;;;;;;21.70;99.90;;;;;;5056323;28;20618;-62
2022/04/15 07:44:39;;;;;;;;;;;21.60;99.90;;;;;;5051717;28;19931;-60
2022/04/15 07:47:08;;;;;;;;;;;21.60;99.90;;;;;;5049921;28;19924;-63
2022/04/15 07:49:35;;;;;;;;;;;21.60;99.90;;;;;;5054082;28;19950;-62
2022/04/15 07:52:04;;;;;;;;;;;21.60;99.90;;;;;;5039571;28;20385;-60
2022/04/15 07:54:32;;;;;;;;;;;21.60;99.90;;;;;;5048675;28;19928;-67
2022/04/15 07:56:59;;;;;;;;;;;21.60;99.90;;;;;;5061673;28;19925;-66
2022/04/15 07:59:27;;;;;;;;;;;21.60;99.90;;;;;;5061428;28;19920;-63
2022/04/15 08:01:54;;;;;;;;;;;21.60;99.90;;;;;;5059336;28;20278;-66
2022/04/15 08:04:22;;;;;;;;;;;21.70;99.90;;;;;;5056861;28;19929;-65
2022/04/15 08:06:49;;;;;;;;;;;21.70;99.90;;;;;;5057303;28;19925;-68
2022/04/15 08:09:19;;;;;;;;;;;21.70;99.90;;;;;;5063569;28;19928;-60
2022/04/15 08:11:47;;;;;;;;;;;21.70;99.90;;;;;;5062124;28;19939;-66
2022/04/15 08:14:14;;;;;;;;;;;21.70;99.90;;;;;;5059801;28;19925;-68
2022/04/15 08:16:41;;;;;;;;;;;21.70;99.90;;;;;;5044538;28;19935;-68
2022/04/15 08:19:09;;;;;;;;;;;21.70;99.90;;;;;;5058087;28;19924;-64
2022/04/15 08:21:36;;;;;;;;;;;21.70;99.90;;;;;;5065851;28;19970;-63
2022/04/15 08:24:03;;;;;;;;;;;21.70;99.90;;;;;;5062660;28;19928;-62
2022/04/15 08:26:30;;;;;;;;;;;21.70;99.90;;;;;;5069023;28;19924;-62
2022/04/15 08:28:58;;;;;;;;;;;21.70;99.90;;;;;;5054281;28;19921;-62
2022/04/15 08:31:25;;;;;;;;;;;21.70;99.90;;;;;;5056008;28;19929;-62
2022/04/15 08:33:52;;;;;;;;;;;21.70;99.90;;;;;;5061810;28;19935;-64
2022/04/15 08:36:19;;;;;;;;;;;21.70;99.90;;;;;;5058117;28;19931;-62
2022/04/15 08:38:46;;;;;;;;;;;21.70;99.90;;;;;;5050099;28;19924;-62
2022/04/15 08:41:14;;;;;;;;;;;21.60;99.90;;;;;;5039405;28;19925;-62
2022/04/15 08:43:42;;;;;;;;;;;21.60;99.90;;;;;;5052297;28;19924;-62
2022/04/15 08:46:11;;;;;;;;;;;21.60;99.90;;;;;;5066406;28;20320;-61
2022/04/15 08:48:39;;;;;;;;;;;21.60;99.90;;;;;;5049661;28;19924;-62
2022/04/15 08:51:07;;;;;;;;;;;21.60;99.90;;;;;;5060841;28;20313;-62
2022/04/15 08:53:37;;;;;;;;;;;21.60;99.90;;;;;;5041861;28;19932;-62
2022/04/15 08:56:05;;;;;;;;;;;21.60;99.90;;;;;;5063350;28;19925;-63
2022/04/15 08:58:32;;;;;;;;;;;21.60;99.90;;;;;;5056802;28;19924;-62
2022/04/15 09:00:59;;;;;;;;;;;21.60;99.90;;;;;;5062811;28;19931;-62
2022/04/15 09:03:28;;;;;;;;;;;21.60;99.90;;;;;;5067006;28;19921;-62
2022/04/15 09:05:56;;;;;;;;;;;21.60;99.90;;;;;;5044209;28;19947;-62
2022/04/15 09:08:25;;;;;;;;;;;21.70;99.90;;;;;;5052407;28;20317;-65
2022/04/15 09:10:56;;;;;;;;;;;21.70;99.90;;;;;;5054969;28;20317;-61
2022/04/15 09:13:28;;;;;;;;;;;21.70;99.90;;;;;;5048685;28;19924;-61
2022/04/15 09:15:58;;;;;;;;;;;21.70;99.90;;;;;;5066502;28;19928;-60
2022/04/15 09:18:29;;;;;;;;;;;21.70;99.90;;;;;;5059063;28;19924;-64
2022/04/15 09:21:16;;;;;;;;;;;21.70;99.90;;;;;;5064982;28;19921;-57
2022/04/15 09:23:53;;;;;;;;;;;21.60;99.90;;;;;;5050951;28;20298;-56
2022/04/15 09:26:21;;;;;;;;;;;21.60;99.90;;;;;;5060653;28;19921;-59
2022/04/15 09:28:48;;;;;;;;;;;21.70;99.90;;;;;;5057488;28;19920;-58
2022/04/15 09:31:16;;;;;;;;;;;21.60;99.90;;;;;;5062417;28;19928;-56
2022/04/15 09:33:53;;;;;;;;;;;21.70;99.90;;;;;;5063476;28;19928;-58
2022/04/15 09:36:26;;;;;;;;;;;21.70;99.90;;;;;;5056399;28;19924;-59
2022/04/15 09:38:57;;;;;;;;;;;21.60;99.90;;;;;;5056707;28;19929;-58
2022/04/15 09:41:25;;;;;;;;;;;21.60;99.90;;;;;;5058630;28;19924;-56
2022/04/15 09:43:53;;;;;;;;;;;21.60;99.90;;;;;;5052359;28;19929;-57
2022/04/15 09:46:20;;;;;;;;;;;21.60;99.90;;;;;;5065344;28;19935;-57
2022/04/15 09:49:02;;;;;;;;;;;21.60;99.90;;;;;;5054657;28;20389;-58
2022/04/15 09:51:33;;;;;;;;;;;21.60;99.90;;;;;;5048123;28;19920;-57
2022/04/15 09:54:01;;;;;;;;;;;21.50;99.90;;;;;;5062974;28;19928;-59
2022/04/15 09:56:31;;;;;;;;;;;21.50;99.90;;;;;;5055591;28;19932;-60
2022/04/15 09:59:00;;;;;;;;;;;21.60;99.90;;;;;;5059538;28;19931;-55
2022/04/15 10:01:29;;;;;;;;;;;21.50;99.90;;;;;;5056284;28;20416;-59
2022/04/15 10:03:56;;;;;;;;;;;21.60;99.90;;;;;;5057315;28;19924;-59
2022/04/15 10:06:24;;;;;;;;;;;21.50;99.90;;;;;;5050950;28;19936;-65
2022/04/15 10:09:03;;;;;;;;;;;21.50;99.90;;;;;;5053342;28;19925;-56
2022/04/15 10:11:35;;;;;;;;;;;21.50;99.90;;;;;;5037817;28;20035;-56
2022/04/15 10:14:03;;;;;;;;;;;21.50;99.90;;;;;;5050070;28;19921;-58
2022/04/15 10:16:32;;;;;;;;;;;21.50;99.90;;;;;;5048046;28;19927;-61
2022/04/15 10:19:00;;;;;;;;;;;21.50;99.90;;;;;;5052493;28;19947;-59
2022/04/15 10:21:34;;;;;;;;;;;21.50;99.90;;;;;;5051430;28;19925;-57
2022/04/15 10:24:02;;;;;;;;;;;21.50;99.90;;;;;;5047631;28;19931;-60
2022/04/15 10:26:34;;;;;;;;;;;21.50;99.90;;;;;;5048076;28;19924;-58
2022/04/15 10:29:03;;;;;;;;;;;21.50;99.90;;;;;;5032979;28;19924;-58
2022/04/15 10:31:37;;;;;;;;;;;21.50;99.90;;;;;;5037457;28;19936;-57
2022/04/15 10:34:15;;;;;;;;;;;21.50;99.90;;;;;;5039879;28;19925;-58
2022/04/15 10:36:43;;;;;;;;;;;21.40;99.90;;;;;;5050935;28;20297;-57
2022/04/15 10:39:11;;;;;;;;;;;21.40;99.90;;;;;;5053577;28;20329;-58
2022/04/15 10:41:41;;;;;;;;;;;21.40;99.90;;;;;;5066918;28;19927;-60
2022/04/15 10:44:12;;;;;;;;;;;21.40;99.90;;;;;;5053894;28;19951;-60
2022/04/15 10:46:40;;;;;;;;;;;21.40;99.90;;;;;;5048986;28;19928;-57
2022/04/15 10:49:34;;;;;;;;;;;21.40;99.90;;;;;;5065158;28;19968;-58
2022/04/15 10:52:02;;;;;;;;;;;21.40;99.90;;;;;;5028996;28;19925;-59
2022/04/15 10:54:35;;;;;;;;;;;21.40;99.90;;;;;;5052699;28;19927;-58
2022/04/15 10:57:04;;;;;;;;;;;21.40;99.90;;;;;;5041498;28;19931;-58
2022/04/15 11:02:34;;;;;;;;;;;21.50;99.90;;;;;;5052714;28;19924;-60
2022/04/15 11:05:03;;;;;;;;;;;21.50;99.90;;;;;;5042951;28;19924;-58
2022/04/15 11:07:42;;;;;;;;;;;21.50;99.90;;;;;;5054690;28;19921;-59
2022/04/15 11:10:28;;;;;;;;;;;21.50;99.90;;;;;;5048990;28;19931;-59
2022/04/15 11:12:59;;;;;;;;;;;21.50;99.90;;;;;;5047454;28;19920;-59
2022/04/15 11:15:46;;;;;;;;;;;21.40;99.90;;;;;;5040837;28;19920;-58
2022/04/15 11:18:14;;;;;;;;;;;21.50;99.90;;;;;;5046990;28;19940;-58
2022/04/15 11:20:42;;;;;;;;;;;21.40;99.90;;;;;;5052173;28;19921;-60
2022/04/15 11:23:09;;;;;;;;;;;21.40;99.90;;;;;;5047072;28;19947;-56
2022/04/15 11:25:43;;;;;;;;;;;21.50;99.90;;;;;;5047232;28;19920;-58
2022/04/15 11:28:10;;;;;;;;;;;21.50;99.90;;;;;;5046491;28;19932;-57
2022/04/15 11:30:38;;;;;;;;;;;21.50;99.90;;;;;;5036533;28;19924;-58
2022/04/15 11:33:05;;;;;;;;;;;21.40;99.90;;;;;;5046410;28;19924;-59
2022/04/15 11:35:34;;;;;;;;;;;21.40;99.90;;;;;;5058606;28;19920;-56
2022/04/15 11:38:03;;;;;;;;;;;21.40;99.90;;;;;;5053299;28;19924;-57
2022/04/15 11:40:34;;;;;;;;;;;21.40;99.90;;;;;;5055789;28;20354;-59
2022/04/15 11:43:06;;;;;;;;;;;21.40;99.90;;;;;;5055085;28;19927;-60
2022/04/15 11:45:41;;;;;;;;;;;21.50;99.90;;;;;;5060979;28;19975;-56
2022/04/15 11:48:15;;;;;;;;;;;21.40;99.90;;;;;;5050964;28;19943;-59
2022/04/15 11:50:42;;;;;;;;;;;21.40;99.90;;;;;;5046011;28;20420;-57
2022/04/15 11:53:09;;;;;;;;;;;21.40;99.90;;;;;;5051998;28;20350;-59
2022/04/15 11:55:46;;;;;;;;;;;21.40;99.90;;;;;;5056423;28;19931;-59
2022/04/15 11:58:14;;;;;;;;;;;21.40;99.90;;;;;;5041761;28;20141;-58
2022/04/15 12:00:41;;;;;;;;;;;21.40;99.90;;;;;;5056085;28;19947;-57
2022/04/15 12:03:11;;;;;;;;;;;21.40;99.90;;;;;;5051589;28;20409;-57
2022/04/15 12:05:39;;;;;;;;;;;21.40;99.90;;;;;;5052017;28;19932;-59
2022/04/15 12:08:07;;;;;;;;;;;21.40;99.90;;;;;;5032323;28;19975;-58
2022/04/15 12:10:37;;;;;;;;;;;21.40;99.90;;;;;;5042598;28;20444;-55
2022/04/15 12:13:06;;;;;;;;;;;21.40;99.90;;;;;;5050288;28;19967;-60
2022/04/15 12:15:34;;;;;;;;;;;21.40;99.90;;;;;;5064778;28;20388;-59
2022/04/15 12:18:02;;;;;;;;;;;21.40;99.90;;;;;;5052814;28;20334;-59
2022/04/15 12:20:30;;;;;;;;;;;21.40;99.90;;;;;;5064520;28;19924;-59
2022/04/15 12:22:58;;;;;;;;;;;21.40;99.90;;;;;;5044207;28;19936;-59
2022/04/15 12:26:05;;;;;;;;;;;21.40;99.90;;;;;;5054612;28;19920;-58
2022/04/15 12:29:47;;;;;;;;;;;21.40;99.90;;;;;;5051147;28;19928;-58
2022/04/15 12:31:01;;;;;;;;;;;21.40;99.90;;;;;;5049065;28;20392;-57
2022/04/15 12:33:28;;;;;;;;;;;21.40;99.90;;;;;;5068380;28;20297;-57
2022/04/15 12:35:59;;;;;;;;;;;21.40;99.90;;;;;;5056084;28;19928;-56
2022/04/15 12:38:26;;;;;;;;;;;21.40;99.90;;;;;;5051714;28;20210;-59
2022/04/15 12:41:00;;;;;;;;;;;21.50;99.90;;;;;;5058808;28;19935;-59
2022/04/15 12:43:27;;;;;;;;;;;21.50;99.90;;;;;;5065873;28;19992;-57
2022/04/15 12:45:56;;;;;;;;;;;21.50;99.90;;;;;;5053501;28;19924;-59
2022/04/15 12:48:23;;;;;;;;;;;21.40;99.90;;;;;;5031469;28;20416;-58
2022/04/15 12:50:54;;;;;;;;;;;21.50;99.90;;;;;;5054074;28;19929;-59
2022/04/15 12:53:23;;;;;;;;;;;21.40;99.90;;;;;;5048336;28;19986;-58
2022/04/15 12:55:51;;;;;;;;;;;21.50;99.90;;;;;;5055307;28;20301;-61
2022/04/15 12:58:22;;;;;;;;;;;21.50;99.90;;;;;;5049021;28;19921;-58
2022/04/15 13:00:51;;;;;;;;;;;21.50;99.90;;;;;;5055359;28;20313;-61
2022/04/15 13:03:19;;;;;;;;;;;21.50;99.90;;;;;;5067788;28;19920;-60
2022/04/15 13:05:47;;;;;;;;;;;21.40;99.90;;;;;;5057165;28;19932;-60
2022/04/15 13:08:19;;;;;;;;;;;21.50;99.90;;;;;;5052705;28;20241;-61
2022/04/15 13:10:48;;;;;;;;;;;21.50;99.90;;;;;;5044480;28;19924;-62
2022/04/15 13:13:34;;;;;;;;;;;21.50;99.90;;;;;;5060228;28;19931;-58
2022/04/15 13:16:02;;;;;;;;;;;21.50;99.90;;;;;;5059038;28;19924;-56
2022/04/15 13:18:29;;;;;;;;;;;21.50;99.90;;;;;;5049165;28;19925;-57
2022/04/15 13:20:56;;;;;;;;;;;21.50;99.90;;;;;;5057555;28;19932;-57
2022/04/15 13:23:23;;;;;;;;;;;21.50;99.90;;;;;;5050192;28;20429;-59
2022/04/15 13:25:52;;;;;;;;;;;21.60;99.90;;;;;;5061516;28;19931;-57
2022/04/15 13:28:19;;;;;;;;;;;21.60;99.90;;;;;;5058982;28;20326;-57
2022/04/15 13:30:48;;;;;;;;;;;21.70;99.90;;;;;;5048196;28;19925;-60
2022/04/15 13:33:15;;;;;;;;;;;21.70;99.90;;;;;;5048001;28;19931;-55
2022/04/15 13:35:43;;;;;;;;;;;21.80;99.90;;;;;;5058296;28;19932;-57
2022/04/15 13:38:10;;;;;;;;;;;21.80;99.90;;;;;;5051832;28;19924;-52
2022/04/15 13:40:39;;;;;;;;;;;21.80;99.90;;;;;;5051325;28;20327;-54
2022/04/15 13:43:07;;;;;;;;;;;21.80;99.90;;;;;;5054818;28;19924;-58
2022/04/15 13:45:34;;;;;;;;;;;21.90;99.90;;;;;;5054757;28;19935;-57
2022/04/15 13:48:02;;;;;;;;;;;21.90;99.90;;;;;;5056899;28;19950;-57
2022/04/15 13:50:29;;;;;;;;;;;21.90;99.90;;;;;;5064041;28;19924;-57
2022/04/15 13:58:31;;;;;;;;;;;21.90;99.90;;;;;;5047922;28;19920;-58
2022/04/15 14:00:59;;;;;;;;;;;21.90;99.90;;;;;;5059328;28;20098;-61
2022/04/15 14:03:27;;;;;;;;;;;22.00;99.90;;;;;;5068138;28;19925;-58
2022/04/15 14:05:55;;;;;;;;;;;22.10;99.90;;;;;;5052587;28;19924;-59
2022/04/15 14:08:22;;;;;;;;;;;22.10;99.90;;;;;;5064630;28;19925;-59
2022/04/15 14:10:52;;;;;;;;;;;22.20;99.90;;;;;;5052735;28;19932;-56
2022/04/15 14:13:19;;;;;;;;;;;22.20;99.90;;;;;;5051539;28;19924;-58
2022/04/15 14:15:46;;;;;;;;;;;22.30;99.90;;;;;;5060495;28;19924;-56
2022/04/15 14:18:13;;;;;;;;;;;22.40;99.90;;;;;;5050853;28;19924;-58
2022/04/15 14:20:41;;;;;;;;;;;22.40;99.90;;;;;;5067800;28;19929;-56
2022/04/15 14:23:09;;;;;;;;;;;22.40;99.90;;;;;;5052627;28;19931;-58
2022/04/15 14:25:36;;;;;;;;;;;22.40;99.90;;;;;;5054898;28;19924;-59
2022/04/15 14:28:03;;;;;;;;;;;22.50;99.90;;;;;;5053075;28;19928;-58
2022/04/15 14:30:31;;;;;;;;;;;22.50;99.90;;;;;;5047491;28;19921;-59
2022/04/15 14:32:59;;;;;;;;;;;22.50;99.90;;;;;;5048575;28;19925;-56